Barney Turecamo — WDC6808 — position and weather

sailwx.info

Track history (hours):
 
Tides and Currents Weather Stations Pressure Air Temp Water Temp Dewpoint Dewpoint Depression Visibility Wind Speed Wind Dir Waves Ship Positions

Barney Turecamo

Owner: Moran Towing Corporation, New Canaan, CT. More information available from US FCC via Universal Licensing System and Coast Guard Vessel Documentation Center.

Last reported at 2018-Jan-18 15:00 UTC. Time now 2018-Jan-18 15:38 UTC.
Position N 40°39' W 074°09'.

Length 156 m; draft 7.5 m.

Type: . MMSI: 367061610.

Date/timePositionNaut miles runAvg speedWind from/ knotsBaromVisibWave heightAir tempDewpointWater temp
2018-Jan-18 15:00N 40°39' W 074°09'4 7.2
2018-Jan-18 14:30N 40°39' W 074°04'2 3.0
2018-Jan-18 13:59N 40°39' W 074°06'0 0.8
2018-Jan-18 13:30N 40°39' W 074°07'0 0.0
2018-Jan-18 12:59N 40°39' W 074°07'0 0.0
2018-Jan-18 12:29N 40°39' W 074°07'0 0.0
2018-Jan-18 11:59N 40°39' W 074°07'0 0.0
2018-Jan-18 11:29N 40°39' W 074°07'0 0.0
2018-Jan-18 10:56N 40°39' W 074°07'0 0.0
2018-Jan-18 10:26N 40°39' W 074°07'0 0.0
2018-Jan-18 09:47N 40°39' W 074°07'0 0.0
2018-Jan-18 09:29N 40°39' W 074°07'0 0.0
2018-Jan-18 08:59N 40°39' W 074°07'0 0.0
2018-Jan-18 08:29N 40°39' W 074°07'0 0.0
2018-Jan-18 07:59N 40°39' W 074°07'0 0.0
2018-Jan-18 07:26N 40°39' W 074°07'0 0.0
2018-Jan-18 06:59N 40°39' W 074°07'0 0.0
2018-Jan-18 06:29N 40°39' W 074°07'0 0.0
2018-Jan-18 05:59N 40°39' W 074°07'0 0.0
2018-Jan-18 05:26N 40°39' W 074°07'0 0.0
2018-Jan-18 04:59N 40°39' W 074°07'0 0.0
2018-Jan-18 04:29N 40°39' W 074°07'0 0.0
2018-Jan-18 03:59N 40°39' W 074°07'0 0.0
2018-Jan-18 03:29N 40°39' W 074°07'0 0.0
2018-Jan-18 02:59N 40°39' W 074°07'0 0.0
2018-Jan-18 02:29N 40°39' W 074°07'0 0.0
2018-Jan-18 02:00N 40°39' W 074°07'0 0.1
2018-Jan-18 01:30N 40°39' W 074°07'2 4.1
2018-Jan-18 01:00N 40°39' W 074°04'1 0.9
2018-Jan-17 23:56N 40°39' W 074°03'  
2018-Jan-12 14:28N 40°39' W 074°05'0 0.0
2018-Jan-12 13:58N 40°39' W 074°05'0 0.0
2018-Jan-12 13:25N 40°39' W 074°05'0 0.0
2018-Jan-12 12:58N 40°39' W 074°05'0 0.0
2018-Jan-12 12:28N 40°39' W 074°05'0 0.0
2018-Jan-12 11:58N 40°39' W 074°05'0 0.0
2018-Jan-12 11:28N 40°39' W 074°05'0 0.0
2018-Jan-12 10:58N 40°39' W 074°05'0 0.0
2018-Jan-12 10:28N 40°39' W 074°05'0 0.0
2018-Jan-12 09:58N 40°39' W 074°05'0 0.0
2018-Jan-12 09:28N 40°39' W 074°05'0 0.0
2018-Jan-12 08:58N 40°39' W 074°05'0 0.0
2018-Jan-12 08:28N 40°39' W 074°05'0 0.0
2018-Jan-12 06:51N 40°39' W 074°05'0 0.0
2018-Jan-12 06:30N 40°39' W 074°05'0 0.0
2018-Jan-12 06:00N 40°39' W 074°05'0 0.0
2018-Jan-12 05:30N 40°39' W 074°05'0 0.0
2018-Jan-12 05:00N 40°39' W 074°05'0 0.0
2018-Jan-12 04:30N 40°39' W 074°05'0 0.0
2018-Jan-12 04:00N 40°39' W 074°05'0 0.0
2018-Jan-12 03:30N 40°39' W 074°05'0 0.0
2018-Jan-12 03:00N 40°39' W 074°05'0 0.0
2018-Jan-12 02:30N 40°39' W 074°05'0 0.0
2018-Jan-12 02:00N 40°39' W 074°05'0 0.0
2018-Jan-12 01:30N 40°39' W 074°05'0 0.0
2018-Jan-12 01:00N 40°39' W 074°05'0 0.0
2018-Jan-12 00:30N 40°39' W 074°05'0 0.0
2018-Jan-12 00:00N 40°39' W 074°05'0 0.0
2018-Jan-11 23:30N 40°39' W 074°05'0 0.0
2018-Jan-11 23:00N 40°39' W 074°05'0 0.0
2018-Jan-11 22:30N 40°39' W 074°05'0 0.0
2018-Jan-11 22:00N 40°39' W 074°05'0 0.0
2018-Jan-11 21:31N 40°39' W 074°05'0 0.4
2018-Jan-11 21:00N 40°39' W 074°05'2 0.7
2018-Jan-11 18:05N 40°38' W 074°08'0 0.0
2018-Jan-11 17:59N 40°38' W 074°08'0 0.0
2018-Jan-11 17:28N 40°38' W 074°08'2 4.4
2018-Jan-11 17:00N 40°39' W 074°05'0 0.3
2018-Jan-11 16:28N 40°39' W 074°05'0 0.0
2018-Jan-11 15:58N 40°39' W 074°05'0 0.1
2018-Jan-11 15:28N 40°39' W 074°05'0 0.1
2018-Jan-11 14:58N 40°39' W 074°05'0 0.2
2018-Jan-11 14:30N 40°39' W 074°05'2 4.9
2018-Jan-11 14:00N 40°37' W 074°03'2 1.9
2018-Jan-11 12:49N 40°35' W 074°01'0 0.0
2018-Jan-11 12:22N 40°35' W 074°01'0 0.0
2018-Jan-11 05:55N 40°36' W 074°01'0 0.1
2018-Jan-11 04:52N 40°35' W 074°01'0 0.0
2018-Jan-10 16:22N 40°35' W 074°01'0 0.0
2018-Jan-10 05:47N 40°36' W 074°01'1 3.6
2018-Jan-10 05:26N 40°36' W 074°03'3 7.4
2018-Jan-10 05:00N 40°39' W 074°05'3 6.6
2018-Jan-10 04:30N 40°39' W 074°09'3 0.1
2018-Jan-09 08:04N 40°39' W 074°06'1 8.0
2018-Jan-09 08:00N 40°39' W 074°05'2 0.6
2018-Jan-09 05:23N 40°39' W 074°03'0 0.1
2018-Jan-09 05:00N 40°39' W 074°03'3 5.3
2018-Jan-09 04:30N 40°39' W 074°06'1 0.1
2018-Jan-08 22:49N 40°39' W 074°06'2 1.5
2018-Jan-08 21:27N 40°39' W 074°03'0 0.5
2018-Jan-08 21:00N 40°39' W 074°03'2 1.5
2018-Jan-08 19:44N 40°37' W 074°03'0 0.0
2018-Jan-08 17:23N 40°37' W 074°03'0 0.0
2018-Jan-08 16:59N 40°37' W 074°03'0 0.0
2018-Jan-08 16:14N 40°37' W 074°03'  
Track history (hours):
 
Tides and Currents Weather Stations Pressure Air Temp Water Temp Dewpoint Dewpoint Depression Visibility Wind Speed Wind Dir Waves Ship Positions

Barney Turecamo

Owner: Moran Towing Corporation, New Canaan, CT. More information available from US FCC via Universal Licensing System and Coast Guard Vessel Documentation Center.

Last reported at 2018-Jan-18 15:00 UTC. Time now 2018-Jan-18 15:38 UTC.
Position N 40°39' W 074°09'.

Length 156 m; draft 7.5 m.

Type: . MMSI: 367061610.

Date/timePositionNaut miles runAvg speedWind from/ knotsBaromVisibWave heightAir tempDewpointWater temp
2018-Jan-18 15:00N 40°39' W 074°09'4 7.2
2018-Jan-18 14:30N 40°39' W 074°04'2 3.0
2018-Jan-18 13:59N 40°39' W 074°06'0 0.8
2018-Jan-18 13:30N 40°39' W 074°07'0 0.0
2018-Jan-18 12:59N 40°39' W 074°07'0 0.0
2018-Jan-18 12:29N 40°39' W 074°07'0 0.0
2018-Jan-18 11:59N 40°39' W 074°07'0 0.0
2018-Jan-18 11:29N 40°39' W 074°07'0 0.0
2018-Jan-18 10:56N 40°39' W 074°07'0 0.0
2018-Jan-18 10:26N 40°39' W 074°07'0 0.0
2018-Jan-18 09:47N 40°39' W 074°07'0 0.0
2018-Jan-18 09:29N 40°39' W 074°07'0 0.0
2018-Jan-18 08:59N 40°39' W 074°07'0 0.0
2018-Jan-18 08:29N 40°39' W 074°07'0 0.0
2018-Jan-18 07:59N 40°39' W 074°07'0 0.0
2018-Jan-18 07:26N 40°39' W 074°07'0 0.0
2018-Jan-18 06:59N 40°39' W 074°07'0 0.0
2018-Jan-18 06:29N 40°39' W 074°07'0 0.0
2018-Jan-18 05:59N 40°39' W 074°07'0 0.0
2018-Jan-18 05:26N 40°39' W 074°07'0 0.0
2018-Jan-18 04:59N 40°39' W 074°07'0 0.0
2018-Jan-18 04:29N 40°39' W 074°07'0 0.0
2018-Jan-18 03:59N 40°39' W 074°07'0 0.0
2018-Jan-18 03:29N 40°39' W 074°07'0 0.0
2018-Jan-18 02:59N 40°39' W 074°07'0 0.0
2018-Jan-18 02:29N 40°39' W 074°07'0 0.0
2018-Jan-18 02:00N 40°39' W 074°07'0 0.1
2018-Jan-18 01:30N 40°39' W 074°07'2 4.1
2018-Jan-18 01:00N 40°39' W 074°04'1 0.9
2018-Jan-17 23:56N 40°39' W 074°03'  
2018-Jan-12 14:28N 40°39' W 074°05'0 0.0
2018-Jan-12 13:58N 40°39' W 074°05'0 0.0
2018-Jan-12 13:25N 40°39' W 074°05'0 0.0
2018-Jan-12 12:58N 40°39' W 074°05'0 0.0
2018-Jan-12 12:28N 40°39' W 074°05'0 0.0
2018-Jan-12 11:58N 40°39' W 074°05'0 0.0
2018-Jan-12 11:28N 40°39' W 074°05'0 0.0
2018-Jan-12 10:58N 40°39' W 074°05'0 0.0
2018-Jan-12 10:28N 40°39' W 074°05'0 0.0
2018-Jan-12 09:58N 40°39' W 074°05'0 0.0
2018-Jan-12 09:28N 40°39' W 074°05'0 0.0
2018-Jan-12 08:58N 40°39' W 074°05'0 0.0
2018-Jan-12 08:28N 40°39' W 074°05'0 0.0
2018-Jan-12 06:51N 40°39' W 074°05'0 0.0
2018-Jan-12 06:30N 40°39' W 074°05'0 0.0
2018-Jan-12 06:00N 40°39' W 074°05'0 0.0
2018-Jan-12 05:30N 40°39' W 074°05'0 0.0
2018-Jan-12 05:00N 40°39' W 074°05'0 0.0
2018-Jan-12 04:30N 40°39' W 074°05'0 0.0
2018-Jan-12 04:00N 40°39' W 074°05'0 0.0
2018-Jan-12 03:30N 40°39' W 074°05'0 0.0
2018-Jan-12 03:00N 40°39' W 074°05'0 0.0
2018-Jan-12 02:30N 40°39' W 074°05'0 0.0
2018-Jan-12 02:00N 40°39' W 074°05'0 0.0
2018-Jan-12 01:30N 40°39' W 074°05'0 0.0
2018-Jan-12 01:00N 40°39' W 074°05'0 0.0
2018-Jan-12 00:30N 40°39' W 074°05'0 0.0
2018-Jan-12 00:00N 40°39' W 074°05'0 0.0
2018-Jan-11 23:30N 40°39' W 074°05'0 0.0
2018-Jan-11 23:00N 40°39' W 074°05'0 0.0
2018-Jan-11 22:30N 40°39' W 074°05'0 0.0
2018-Jan-11 22:00N 40°39' W 074°05'0 0.0
2018-Jan-11 21:31N 40°39' W 074°05'0 0.4
2018-Jan-11 21:00N 40°39' W 074°05'2 0.7
2018-Jan-11 18:05N 40°38' W 074°08'0 0.0
2018-Jan-11 17:59N 40°38' W 074°08'0 0.0
2018-Jan-11 17:28N 40°38' W 074°08'2 4.4
2018-Jan-11 17:00N 40°39' W 074°05'0 0.3
2018-Jan-11 16:28N 40°39' W 074°05'0 0.0
2018-Jan-11 15:58N 40°39' W 074°05'0 0.1
2018-Jan-11 15:28N 40°39' W 074°05'0 0.1
2018-Jan-11 14:58N 40°39' W 074°05'0 0.2
2018-Jan-11 14:30N 40°39' W 074°05'2 4.9
2018-Jan-11 14:00N 40°37' W 074°03'2 1.9
2018-Jan-11 12:49N 40°35' W 074°01'0 0.0
2018-Jan-11 12:22N 40°35' W 074°01'0 0.0
2018-Jan-11 05:55N 40°36' W 074°01'0 0.1
2018-Jan-11 04:52N 40°35' W 074°01'0 0.0
2018-Jan-10 16:22N 40°35' W 074°01'0 0.0
2018-Jan-10 05:47N 40°36' W 074°01'1 3.6
2018-Jan-10 05:26N 40°36' W 074°03'3 7.4
2018-Jan-10 05:00N 40°39' W 074°05'3 6.6
2018-Jan-10 04:30N 40°39' W 074°09'3 0.1
2018-Jan-09 08:04N 40°39' W 074°06'1 8.0
2018-Jan-09 08:00N 40°39' W 074°05'2 0.6
2018-Jan-09 05:23N 40°39' W 074°03'0 0.1
2018-Jan-09 05:00N 40°39' W 074°03'3 5.3
2018-Jan-09 04:30N 40°39' W 074°06'1 0.1
2018-Jan-08 22:49N 40°39' W 074°06'2 1.5
2018-Jan-08 21:27N 40°39' W 074°03'0 0.5
2018-Jan-08 21:00N 40°39' W 074°03'2 1.5
2018-Jan-08 19:44N 40°37' W 074°03'0 0.0
2018-Jan-08 17:23N 40°37' W 074°03'0 0.0
2018-Jan-08 16:59N 40°37' W 074°03'0 0.0
2018-Jan-08 16:14N 40°37' W 074°03'  

Dump ship's entire track history